createdAt,value
2023-03-22T00:01:24.110Z,4.05
2023-03-22T00:03:52.671Z,4.28
2023-03-22T00:06:20.422Z,3.97
2023-03-22T00:08:52.401Z,3.08
2023-03-22T00:11:22.793Z,2.85
2023-03-22T00:13:52.671Z,2.97
2023-03-22T00:16:21.918Z,4.43
2023-03-22T00:18:49.712Z,4.17
2023-03-22T00:21:17.646Z,4.12
2023-03-22T00:23:46.296Z,4.25
2023-03-22T00:26:15.003Z,3.78
2023-03-22T00:28:43.576Z,3.55
2023-03-22T00:31:11.761Z,3.83
2023-03-22T00:33:39.530Z,4.37
2023-03-22T00:36:10.390Z,3.65
2023-03-22T00:38:43.751Z,4.30
2023-03-22T00:41:17.813Z,3.35
2023-03-22T00:43:47.422Z,4.47
2023-03-22T00:46:16.575Z,3.35
2023-03-22T00:48:44.440Z,5.37
2023-03-22T00:51:13.427Z,3.03
2023-03-22T00:53:43.260Z,3.53
2023-03-22T00:56:16.124Z,7.10
2023-03-22T00:58:44.361Z,3.87
2023-03-22T01:01:15.155Z,4.87
2023-03-22T01:03:44.032Z,3.97
2023-03-22T01:06:14.639Z,3.22
2023-03-22T01:08:42.506Z,5.50
2023-03-22T01:11:10.358Z,2.65
2023-03-22T01:13:38.488Z,4.97
2023-03-22T01:16:06.895Z,3.35
2023-03-22T01:18:35.775Z,2.58
2023-03-22T01:21:03.745Z,4.10
2023-03-22T01:23:31.958Z,3.03
2023-03-22T01:25:59.944Z,4.35
2023-03-22T01:28:28.748Z,6.50
2023-03-22T01:30:56.594Z,5.43
2023-03-22T01:33:24.131Z,3.07
2023-03-22T01:35:52.065Z,3.33
2023-03-22T01:38:19.970Z,3.03
2023-03-22T01:40:48.645Z,3.47
2023-03-22T01:43:17.864Z,4.18
2023-03-22T01:45:50.398Z,2.87
2023-03-22T01:48:28.436Z,4.50
2023-03-22T01:51:20.605Z,2.58
2023-03-22T01:53:54.798Z,4.57
2023-03-22T01:56:25.685Z,4.25
2023-03-22T01:58:55.248Z,3.93
2023-03-22T02:01:25.765Z,3.92
2023-03-22T02:04:10.272Z,4.70
2023-03-22T02:06:39.205Z,2.83
2023-03-22T02:09:11.116Z,2.90
2023-03-22T02:11:44.021Z,2.60
2023-03-22T02:14:47.252Z,2.87
2023-03-22T02:17:31.798Z,2.97
2023-03-22T02:20:31.910Z,4.35
2023-03-22T02:23:23.986Z,4.28
2023-03-22T02:26:16.002Z,2.60
2023-03-22T02:28:52.461Z,2.55
2023-03-22T02:31:31.118Z,2.78
2023-03-22T02:34:21.365Z,3.05
2023-03-22T02:37:04.149Z,2.20
2023-03-22T02:39:37.631Z,2.93
2023-03-22T02:42:23.881Z,2.10
2023-03-22T02:44:59.647Z,3.42
2023-03-22T02:47:43.586Z,3.42
2023-03-22T02:50:38.204Z,3.53
2023-03-22T02:53:13.054Z,3.00
2023-03-22T02:55:46.632Z,2.40
2023-03-22T02:58:23.633Z,2.37
2023-03-22T03:00:56.627Z,2.22
2023-03-22T03:03:29.359Z,1.70
2023-03-22T03:06:01.603Z,2.10
2023-03-22T03:08:30.983Z,2.60
2023-03-22T03:11:00.056Z,3.67
2023-03-22T03:13:27.870Z,2.35
2023-03-22T03:16:00.318Z,3.25
2023-03-22T03:18:49.792Z,3.77
2023-03-22T03:21:45.455Z,2.90
2023-03-22T03:24:31.763Z,3.28
2023-03-22T03:27:07.290Z,3.70
2023-03-22T03:30:13.743Z,2.75
2023-03-22T03:33:09.541Z,5.93
2023-03-22T03:35:49.194Z,3.17
2023-03-22T03:38:22.519Z,5.57
2023-03-22T03:40:55.958Z,2.97
2023-03-22T03:43:25.700Z,3.85
2023-03-22T03:45:54.990Z,2.47
2023-03-22T03:48:29.278Z,3.95
2023-03-22T03:50:58.438Z,2.70
2023-03-22T03:53:26.079Z,4.00
2023-03-22T03:55:53.699Z,2.78
2023-03-22T03:58:21.810Z,3.57
2023-03-22T04:00:50.363Z,3.33
2023-03-22T04:03:18.816Z,3.05
2023-03-22T04:05:46.788Z,2.75
2023-03-22T04:08:14.652Z,2.50
2023-03-22T04:10:42.729Z,3.80
2023-03-22T04:13:10.436Z,2.85
2023-03-22T04:15:38.153Z,4.00
2023-03-22T04:18:07.219Z,4.12
2023-03-22T04:20:34.745Z,4.20
2023-03-22T04:23:02.361Z,4.87
2023-03-22T04:25:30.286Z,3.00
2023-03-22T04:28:00.587Z,4.22
2023-03-22T04:30:28.643Z,5.20
2023-03-22T04:32:58.325Z,4.07
2023-03-22T04:35:26.561Z,4.80
2023-03-22T04:37:54.421Z,4.07
2023-03-22T04:40:22.401Z,3.97
2023-03-22T04:42:51.478Z,2.65
2023-03-22T04:45:19.100Z,3.95
2023-03-22T04:47:47.627Z,4.33
2023-03-22T04:50:16.154Z,3.80
2023-03-22T04:52:44.117Z,6.15
2023-03-22T04:55:12.024Z,3.75
2023-03-22T04:57:39.561Z,2.67
2023-03-22T05:00:10.300Z,3.20
2023-03-22T05:02:41.798Z,4.57
2023-03-22T05:05:10.697Z,7.62
2023-03-22T05:07:39.317Z,8.18
2023-03-22T05:10:08.028Z,6.93
2023-03-22T05:12:35.704Z,4.57
2023-03-22T05:15:06.139Z,4.57
2023-03-22T05:17:33.938Z,5.68
2023-03-22T05:20:09.257Z,6.62
2023-03-22T05:22:41.212Z,5.50
2023-03-22T05:25:10.843Z,5.20
2023-03-22T05:27:39.237Z,7.15
2023-03-22T05:30:08.090Z,8.77
2023-03-22T05:32:37.702Z,11.32
2023-03-22T05:35:06.990Z,7.65
2023-03-22T05:37:34.866Z,7.53
2023-03-22T05:40:05.348Z,9.95
2023-03-22T05:42:33.593Z,10.18
2023-03-22T05:45:01.503Z,7.85
2023-03-22T05:47:29.398Z,8.48
2023-03-22T05:49:57.477Z,7.57
2023-03-22T05:52:25.570Z,7.55
2023-03-22T05:54:53.328Z,7.97
2023-03-22T05:57:21.163Z,7.50
2023-03-22T05:59:48.658Z,7.57
2023-03-22T06:02:17.484Z,9.53
2023-03-22T06:04:45.383Z,9.15
2023-03-22T06:07:13.930Z,12.18
2023-03-22T06:09:41.944Z,6.47
2023-03-22T06:12:10.312Z,8.35
2023-03-22T06:14:38.126Z,9.93
2023-03-22T06:17:06.217Z,6.45
2023-03-22T06:19:34.121Z,9.07
2023-03-22T06:22:02.426Z,8.13
2023-03-22T06:24:31.996Z,7.37
2023-03-22T06:27:00.368Z,6.73
2023-03-22T06:29:28.493Z,8.57
2023-03-22T06:31:56.998Z,8.23
2023-03-22T06:34:24.984Z,8.32
2023-03-22T06:36:53.541Z,7.30
2023-03-22T06:39:22.922Z,9.70
2023-03-22T06:41:51.708Z,7.35
2023-03-22T06:44:19.482Z,9.60
2023-03-22T06:46:53.417Z,11.43
2023-03-22T06:49:21.995Z,14.85
2023-03-22T06:51:51.097Z,13.77
2023-03-22T06:54:19.492Z,13.20
2023-03-22T06:56:47.037Z,12.82
2023-03-22T06:59:14.657Z,10.60
2023-03-22T07:01:42.563Z,12.48
2023-03-22T07:04:11.154Z,15.70
2023-03-22T07:06:38.982Z,9.80
2023-03-22T07:09:07.094Z,10.75
2023-03-22T07:11:34.835Z,8.35
2023-03-22T07:14:02.788Z,10.50
2023-03-22T07:16:32.468Z,12.57
2023-03-22T07:19:01.467Z,12.85
2023-03-22T07:21:29.688Z,12.77
2023-03-22T07:23:58.268Z,7.93
2023-03-22T07:26:27.721Z,7.65
2023-03-22T07:28:56.069Z,13.73
2023-03-22T07:31:26.750Z,9.63
2023-03-22T07:33:56.201Z,11.12
2023-03-22T07:36:25.779Z,11.82
2023-03-22T07:38:53.757Z,17.10
2023-03-22T07:41:24.088Z,13.03
2023-03-22T07:43:56.833Z,11.50
2023-03-22T07:46:30.397Z,14.87
2023-03-22T07:48:58.871Z,16.40
2023-03-22T07:51:27.941Z,13.40
2023-03-22T07:53:55.808Z,12.13
2023-03-22T07:56:23.494Z,11.20
2023-03-22T07:58:51.026Z,8.90
2023-03-22T08:01:18.989Z,8.85
2023-03-22T08:03:47.641Z,8.45
2023-03-22T08:06:18.921Z,7.17
2023-03-22T08:08:47.557Z,6.85
2023-03-22T08:11:15.626Z,6.57
2023-03-22T08:13:43.230Z,8.90
2023-03-22T08:16:11.604Z,6.07
2023-03-22T08:18:39.256Z,6.53
2023-03-22T08:21:07.431Z,7.05
2023-03-22T08:23:41.757Z,4.65
2023-03-22T08:26:14.177Z,4.75
2023-03-22T08:28:42.149Z,5.43
2023-03-22T08:31:15.536Z,7.30
2023-03-22T08:33:45.221Z,5.00
2023-03-22T08:36:17.006Z,5.30
2023-03-22T08:38:45.459Z,5.53
2023-03-22T08:41:13.889Z,4.55
2023-03-22T08:43:42.580Z,7.00
2023-03-22T08:46:10.560Z,5.57
2023-03-22T08:48:38.579Z,5.35
2023-03-22T08:51:06.817Z,5.78
2023-03-22T08:53:35.594Z,7.87
2023-03-22T08:56:04.829Z,5.63
2023-03-22T08:58:33.674Z,5.05
2023-03-22T09:01:06.090Z,4.82
2023-03-22T09:03:33.785Z,4.50
2023-03-22T09:06:01.339Z,5.03
2023-03-22T09:08:30.090Z,5.17
2023-03-22T09:10:58.159Z,6.20
2023-03-22T09:13:26.107Z,3.83
2023-03-22T09:15:54.451Z,4.55
2023-03-22T09:18:24.295Z,5.43
2023-03-22T09:20:52.857Z,7.17
2023-03-22T09:23:21.200Z,11.57
2023-03-22T09:25:49.152Z,6.62
2023-03-22T09:28:17.194Z,8.60
2023-03-22T09:30:46.618Z,7.53
2023-03-22T09:33:14.744Z,4.87
2023-03-22T09:35:43.837Z,6.35
2023-03-22T09:38:12.646Z,6.10
2023-03-22T09:40:52.171Z,5.57
2023-03-22T09:43:20.955Z,4.40
2023-03-22T09:45:51.225Z,7.30
2023-03-22T09:48:24.296Z,4.00
2023-03-22T09:50:54.098Z,4.18
2023-03-22T09:53:23.830Z,5.20
2023-03-22T09:56:02.084Z,3.70
2023-03-22T09:58:50.507Z,3.87
2023-03-22T10:01:48.718Z,4.32
2023-03-22T10:04:42.839Z,4.00
2023-03-22T10:07:37.424Z,4.22
2023-03-22T10:10:10.195Z,4.22
2023-03-22T10:12:50.217Z,3.77
2023-03-22T10:15:27.245Z,4.05
2023-03-22T10:17:57.841Z,3.58
2023-03-22T10:20:47.446Z,7.05
2023-03-22T10:23:20.905Z,6.22
2023-03-22T10:25:51.451Z,5.57
2023-03-22T10:28:30.310Z,2.58
2023-03-22T10:30:58.761Z,2.28
2023-03-22T10:33:52.703Z,2.53
2023-03-22T10:36:24.013Z,3.47
2023-03-22T10:39:04.153Z,4.30
2023-03-22T10:41:33.736Z,4.30
2023-03-22T10:44:03.161Z,3.80
2023-03-22T10:46:39.537Z,2.97
2023-03-22T10:49:13.394Z,3.12
2023-03-22T10:51:47.793Z,3.23
2023-03-22T10:54:18.870Z,2.78
2023-03-22T10:56:46.384Z,3.20
2023-03-22T10:59:47.404Z,3.37
2023-03-22T11:02:21.459Z,1.75
2023-03-22T11:04:58.163Z,2.77
2023-03-22T11:07:38.203Z,2.12
2023-03-22T11:10:09.282Z,3.33
2023-03-22T11:12:46.974Z,2.37
2023-03-22T11:15:20.301Z,1.95
2023-03-22T11:17:48.525Z,3.70
2023-03-22T11:20:19.407Z,2.37
2023-03-22T11:22:48.469Z,2.03
2023-03-22T11:25:22.077Z,2.00
2023-03-22T11:28:06.163Z,2.20
2023-03-22T11:30:34.462Z,1.90
2023-03-22T11:33:08.096Z,3.80
2023-03-22T11:35:38.303Z,2.60
2023-03-22T11:38:06.262Z,2.62
2023-03-22T11:40:55.117Z,3.15
2023-03-22T11:43:26.757Z,1.77
2023-03-22T11:45:57.565Z,3.30
2023-03-22T11:48:29.172Z,1.80
2023-03-22T11:51:06.398Z,3.42
2023-03-22T11:53:37.262Z,4.70
2023-03-22T11:56:07.683Z,2.70
2023-03-22T11:58:38.234Z,2.40
2023-03-22T12:01:07.073Z,3.62
2023-03-22T12:03:39.535Z,2.15
2023-03-22T12:06:23.005Z,2.35
2023-03-22T12:09:04.234Z,3.10
2023-03-22T12:11:42.006Z,2.00
2023-03-22T12:14:35.789Z,2.50
2023-03-22T12:17:27.933Z,4.28
2023-03-22T12:20:06.272Z,2.20
2023-03-22T12:22:41.846Z,2.23
2023-03-22T12:25:19.322Z,4.37
2023-03-22T12:28:00.697Z,2.67
2023-03-22T12:30:33.961Z,4.15
2023-03-22T12:33:16.497Z,1.92
2023-03-22T12:35:46.814Z,2.40
2023-03-22T12:38:28.216Z,2.15
2023-03-22T12:41:00.558Z,2.47
2023-03-22T12:43:44.693Z,2.78
2023-03-22T12:46:21.431Z,2.00
2023-03-22T12:48:54.020Z,2.43
2023-03-22T12:51:21.891Z,2.33
2023-03-22T12:53:53.271Z,2.95
2023-03-22T12:56:30.050Z,2.83
2023-03-22T12:59:04.991Z,2.60
2023-03-22T13:02:30.148Z,1.80
2023-03-22T13:05:02.187Z,3.37
2023-03-22T13:07:47.691Z,2.17
2023-03-22T13:10:30.586Z,1.65
2023-03-22T13:13:22.159Z,1.90
2023-03-22T13:15:58.010Z,2.13
2023-03-22T13:18:43.294Z,2.10
2023-03-22T13:21:17.599Z,2.50
2023-03-22T13:24:09.939Z,2.67
2023-03-22T13:26:55.305Z,1.95
2023-03-22T13:29:44.750Z,3.93
2023-03-22T13:32:33.803Z,2.35
2023-03-22T13:35:01.695Z,3.47
2023-03-22T13:37:35.991Z,4.37
2023-03-22T13:40:43.096Z,1.70
2023-03-22T13:43:16.732Z,3.30
2023-03-22T13:46:17.902Z,4.80
2023-03-22T13:48:49.596Z,1.95
2023-03-22T13:51:23.517Z,5.32
2023-03-22T13:54:00.556Z,2.65
2023-03-22T13:56:52.398Z,2.50
2023-03-22T13:59:33.737Z,1.83
2023-03-22T14:02:12.009Z,2.05
2023-03-22T14:04:44.858Z,2.10
2023-03-22T14:07:15.260Z,2.87
2023-03-22T14:09:49.622Z,1.97
2023-03-22T14:12:31.347Z,4.20
2023-03-22T14:15:04.659Z,3.65
2023-03-22T14:18:06.360Z,2.08
2023-03-22T14:20:37.098Z,2.33
